Time;durP1;ratioP1;P1;durP2;ratioP2;P2;SDS_P1;SDS_P2;PMS_P1;PMS_P2;Temp;Humidity;BMP_temperature;BMP_pressure;BME280_temperature;BME280_humidity;BME280_pressure;Samples;Min_cycle;Max_cycle;Signal;HPM_P1;HPM_P2
2021/11/22 00:00:19;;;;;;;28.00;18.00;;;7.80;99.90;;;;;;5028503;28;20212;-51
2021/11/22 00:02:48;;;;;;;33.35;20.83;;;7.90;99.90;;;;;;5026940;28;20232;-53
2021/11/22 00:05:16;;;;;;;33.97;18.38;;;7.80;99.90;;;;;;5028996;28;20274;-57
2021/11/22 00:07:44;;;;;;;34.80;19.23;;;7.90;99.90;;;;;;5028371;28;20196;-49
2021/11/22 00:10:12;;;;;;;37.83;17.58;;;7.80;99.90;;;;;;5029114;28;20535;-53
2021/11/22 00:12:39;;;;;;;34.22;18.77;;;7.70;99.90;;;;;;5025435;28;20216;-53
2021/11/22 00:15:10;;;;;;;32.63;18.83;;;7.80;99.90;;;;;;5022727;28;20516;-53
2021/11/22 00:17:38;;;;;;;34.08;16.70;;;7.90;99.90;;;;;;5030388;28;20245;-55
2021/11/22 00:20:10;;;;;;;34.45;17.48;;;8.10;99.90;;;;;;5022346;28;20520;-50
2021/11/22 00:22:38;;;;;;;30.05;17.23;;;8.30;99.90;;;;;;5028364;28;20219;-50
2021/11/22 00:25:06;;;;;;;29.17;18.45;;;8.10;99.90;;;;;;5037436;28;20228;-51
2021/11/22 00:27:34;;;;;;;28.35;15.70;;;8.10;99.90;;;;;;5030853;28;20204;-52
2021/11/22 00:30:04;;;;;;;32.83;19.25;;;8.00;99.90;;;;;;5023012;28;20427;-51
2021/11/22 00:32:35;;;;;;;32.85;17.67;;;8.00;99.90;;;;;;5022166;28;20233;-50
2021/11/22 00:35:06;;;;;;;28.00;15.90;;;8.00;99.90;;;;;;5026570;28;20250;-54
2021/11/22 00:37:36;;;;;;;34.88;19.45;;;8.10;99.90;;;;;;5022236;28;20232;-53
2021/11/22 00:40:12;;;;;;;32.92;17.58;;;8.00;99.90;;;;;;5028019;28;20406;-53
2021/11/22 00:42:45;;;;;;;31.58;16.58;;;8.00;99.90;;;;;;5022346;28;20270;-48
2021/11/22 00:45:14;;;;;;;34.38;16.65;;;7.90;99.90;;;;;;5026245;28;20293;-50
2021/11/22 00:47:43;;;;;;;29.48;16.60;;;7.90;99.90;;;;;;5033810;28;20196;-51
2021/11/22 00:50:11;;;;;;;34.42;20.15;;;7.90;99.90;;;;;;5025588;28;20200;-50
2021/11/22 00:52:39;;;;;;;37.08;20.50;;;7.70;99.90;;;;;;5033110;28;20254;-51
2021/11/22 00:55:08;;;;;;;28.02;15.30;;;7.70;99.90;;;;;;5031767;28;20623;-51
2021/11/22 00:57:36;;;;;;;24.90;16.08;;;7.70;99.90;;;;;;5033858;28;20201;-54
2021/11/22 01:00:07;;;;;;;29.05;16.60;;;7.50;99.90;;;;;;5034041;28;20204;-49
2021/11/22 01:02:35;;;;;;;27.67;16.27;;;7.50;99.90;;;;;;5027804;28;20227;-52
2021/11/22 01:05:05;;;;;;;25.88;14.82;;;7.50;99.90;;;;;;5025053;28;20225;-50
2021/11/22 01:07:33;;;;;;;24.98;13.32;;;7.70;99.90;;;;;;5032486;28;20260;-50
2021/11/22 01:10:01;;;;;;;22.75;12.88;;;7.80;99.90;;;;;;5029790;28;20301;-53
2021/11/22 01:12:29;;;;;;;25.77;15.80;;;7.80;99.90;;;;;;5033180;28;20217;-51
2021/11/22 01:14:59;;;;;;;24.52;15.88;;;7.90;99.90;;;;;;5022340;28;20217;-49
2021/11/22 01:17:27;;;;;;;25.05;15.02;;;7.80;99.90;;;;;;5028474;28;20267;-51
2021/11/22 01:19:55;;;;;;;23.13;13.90;;;7.90;99.90;;;;;;5024366;28;20201;-49
2021/11/22 01:22:24;;;;;;;20.50;13.75;;;8.10;99.90;;;;;;5025997;28;20220;-48
2021/11/22 01:24:53;;;;;;;25.70;14.02;;;8.20;99.90;;;;;;5039074;28;20235;-52
2021/11/22 01:27:42;;;;;;;24.15;12.98;;;8.30;99.90;;;;;;5028417;28;20192;-53
2021/11/22 01:30:11;;;;;;;24.35;13.43;;;8.40;99.90;;;;;;5022096;28;20201;-52
2021/11/22 01:32:40;;;;;;;22.23;12.60;;;8.30;99.90;;;;;;5028244;28;20224;-52
2021/11/22 01:35:09;;;;;;;25.55;14.40;;;8.20;99.90;;;;;;5032626;28;20204;-53
2021/11/22 01:37:37;;;;;;;19.15;12.73;;;8.10;99.90;;;;;;5024619;28;20201;-53
2021/11/22 01:40:06;;;;;;;19.35;13.75;;;8.10;99.90;;;;;;5029219;28;20208;-56
2021/11/22 01:42:37;;;;;;;21.38;12.48;;;8.10;99.90;;;;;;5031739;28;20404;-52
2021/11/22 01:45:07;;;;;;;21.85;12.60;;;8.10;99.90;;;;;;5030684;28;20224;-53
2021/11/22 01:47:35;;;;;;;20.45;13.23;;;8.20;99.90;;;;;;5031867;28;20197;-53
2021/11/22 01:50:08;;;;;;;22.35;12.30;;;8.20;99.90;;;;;;5028172;28;20250;-51
2021/11/22 01:52:36;;;;;;;21.30;14.55;;;8.20;99.90;;;;;;5029848;28;20235;-49
2021/11/22 01:55:04;;;;;;;24.70;12.90;;;8.20;99.90;;;;;;5032332;28;20196;-49
2021/11/22 01:57:32;;;;;;;20.98;14.30;;;8.20;99.90;;;;;;5037212;28;20275;-48
2021/11/22 02:00:09;;;;;;;19.88;11.43;;;8.20;99.90;;;;;;5028047;28;20204;-49
2021/11/22 02:02:37;;;;;;;21.70;11.43;;;8.20;99.90;;;;;;5036370;28;20220;-52
2021/11/22 02:05:05;;;;;;;21.23;13.75;;;8.40;99.90;;;;;;5032356;28;20228;-49
2021/11/22 02:07:33;;;;;;;16.77;9.98;;;8.30;99.90;;;;;;5023347;28;20200;-51
2021/11/22 02:10:01;;;;;;;19.38;13.27;;;8.30;99.90;;;;;;5025262;28;20205;-50
2021/11/22 02:12:31;;;;;;;15.48;11.48;;;8.50;99.90;;;;;;5028142;28;20247;-52
2021/11/22 02:14:59;;;;;;;21.33;13.40;;;8.60;99.90;;;;;;5024451;28;20209;-51
2021/11/22 02:17:27;;;;;;;22.02;14.00;;;8.60;99.90;;;;;;5030835;28;20249;-49
2021/11/22 02:20:03;;;;;;;15.32;11.60;;;8.60;99.90;;;;;;5033799;28;20262;-50
2021/11/22 02:22:32;;;;;;;24.70;11.73;;;8.60;99.90;;;;;;5031604;28;20226;-52
2021/11/22 02:25:01;;;;;;;21.38;13.48;;;8.70;99.90;;;;;;5040695;28;20253;-55
2021/11/22 02:27:29;;;;;;;20.05;11.18;;;8.60;99.90;;;;;;5029131;28;20492;-51
2021/11/22 02:29:56;;;;;;;18.80;12.45;;;8.60;99.90;;;;;;5028206;28;20208;-48
2021/11/22 02:32:24;;;;;;;27.05;13.88;;;8.30;99.90;;;;;;5029647;28;20271;-53
2021/11/22 02:34:51;;;;;;;22.25;14.00;;;8.10;99.90;;;;;;5028131;28;20219;-52
2021/11/22 02:37:19;;;;;;;20.75;13.18;;;8.10;99.90;;;;;;5028413;28;20208;-52
2021/11/22 02:39:48;;;;;;;22.92;14.82;;;8.00;99.90;;;;;;5023891;28;20208;-48
2021/11/22 02:42:30;;;;;;;19.38;12.70;;;7.90;99.90;;;;;;5027157;28;20228;-52
2021/11/22 02:44:58;;;;;;;26.95;13.27;;;7.80;99.90;;;;;;5038027;28;20232;-53
2021/11/22 02:47:27;;;;;;;22.27;14.18;;;7.90;99.90;;;;;;5026995;28;20204;-54
2021/11/22 02:49:54;;;;;;;21.90;14.30;;;7.90;99.90;;;;;;5030616;28;20197;-51
2021/11/22 02:52:22;;;;;;;22.08;13.77;;;7.90;99.90;;;;;;5025724;28;20259;-52
2021/11/22 02:54:50;;;;;;;20.38;13.07;;;7.90;99.90;;;;;;5027638;28;20240;-51
2021/11/22 02:57:18;;;;;;;24.45;14.25;;;7.90;99.90;;;;;;5037705;28;20240;-49
2021/11/22 02:59:45;;;;;;;22.52;13.60;;;7.90;99.90;;;;;;5026558;28;20207;-52
2021/11/22 03:02:14;;;;;;;23.83;14.80;;;8.00;99.90;;;;;;5031124;28;20260;-52
2021/11/22 03:04:43;;;;;;;22.50;13.38;;;8.10;99.90;;;;;;5026012;28;20207;-55
2021/11/22 03:07:12;;;;;;;21.38;13.77;;;8.10;99.90;;;;;;5029777;28;20541;-51
2021/11/22 03:09:40;;;;;;;23.23;14.20;;;8.20;99.90;;;;;;5024891;28;20353;-46
2021/11/22 03:12:11;;;;;;;21.48;13.50;;;8.20;99.90;;;;;;5029976;28;20308;-51
2021/11/22 03:14:40;;;;;;;23.90;13.88;;;8.10;99.90;;;;;;5035347;28;20208;-50
2021/11/22 03:17:08;;;;;;;20.23;14.70;;;8.10;99.90;;;;;;5027823;28;20201;-46
2021/11/22 03:19:36;;;;;;;27.10;15.00;;;8.00;99.90;;;;;;5028863;28;20204;-50
2021/11/22 03:22:05;;;;;;;26.77;15.48;;;8.00;99.90;;;;;;5025562;28;20221;-53
2021/11/22 03:24:33;;;;;;;26.05;12.90;;;8.10;99.90;;;;;;5043611;28;20263;-54
2021/11/22 03:27:01;;;;;;;19.20;12.55;;;8.10;99.90;;;;;;5031606;28;20228;-50
2021/11/22 03:29:30;;;;;;;23.65;13.98;;;7.90;99.90;;;;;;5033803;28;20203;-52
2021/11/22 03:31:59;;;;;;;19.75;12.23;;;7.80;99.90;;;;;;5022265;28;20282;-55
2021/11/22 03:34:28;;;;;;;31.77;13.23;;;8.00;99.90;;;;;;5028389;28;20200;-51
2021/11/22 03:37:03;;;;;;;23.65;13.25;;;7.90;99.90;;;;;;5025237;28;20512;-48
2021/11/22 03:39:32;;;;;;;23.10;12.23;;;8.10;99.90;;;;;;5024974;28;20216;-45
2021/11/22 03:42:04;;;;;;;16.92;11.45;;;8.20;99.90;;;;;;5027109;28;20224;-49
2021/11/22 03:44:33;;;;;;;18.55;12.38;;;8.10;99.90;;;;;;5025921;28;20247;-51
2021/11/22 03:47:01;;;;;;;24.00;14.18;;;8.10;99.90;;;;;;5030095;28;20228;-44
2021/11/22 03:49:30;;;;;;;19.88;12.10;;;8.10;99.90;;;;;;5023163;28;20275;-51
2021/11/22 03:51:58;;;;;;;22.40;14.20;;;8.10;99.90;;;;;;5030161;28;20227;-54
2021/11/22 03:54:26;;;;;;;22.55;13.20;;;8.00;99.90;;;;;;5033221;28;20213;-48
2021/11/22 03:56:53;;;;;;;21.65;12.85;;;8.10;99.90;;;;;;5028303;28;20205;-52
2021/11/22 03:59:22;;;;;;;22.02;13.70;;;8.00;99.90;;;;;;5029509;28;20204;-53
2021/11/22 04:01:49;;;;;;;18.45;12.13;;;7.80;99.90;;;;;;5025906;28;20225;-52
2021/11/22 04:04:17;;;;;;;24.25;13.38;;;7.80;99.90;;;;;;5020177;28;20232;-49
2021/11/22 04:06:45;;;;;;;24.45;13.82;;;8.00;99.90;;;;;;5025884;28;20415;-53
2021/11/22 04:09:12;;;;;;;21.90;13.05;;;7.90;99.90;;;;;;5027979;28;20200;-49
2021/11/22 04:11:40;;;;;;;22.77;13.75;;;7.80;99.90;;;;;;5030667;28;20263;-52
2021/11/22 04:14:07;;;;;;;22.05;13.00;;;7.80;99.90;;;;;;5027181;28;21500;-52
2021/11/22 04:16:34;;;;;;;27.85;13.48;;;7.70;99.90;;;;;;5024141;28;20201;-52
2021/11/22 04:19:02;;;;;;;22.88;14.82;;;7.70;99.90;;;;;;5032932;28;20214;-47
2021/11/22 04:21:30;;;;;;;26.33;16.05;;;7.70;99.90;;;;;;5028051;28;20259;-52
2021/11/22 04:23:59;;;;;;;25.60;16.05;;;7.80;99.90;;;;;;5030628;28;20204;-54
2021/11/22 04:26:26;;;;;;;28.40;15.82;;;7.80;99.90;;;;;;5033680;28;20243;-54
2021/11/22 04:28:55;;;;;;;17.40;11.98;;;8.00;99.90;;;;;;5028224;28;20236;-50
2021/11/22 04:31:22;;;;;;;25.02;14.07;;;7.90;99.90;;;;;;5025127;28;20300;-55
2021/11/22 04:33:49;;;;;;;20.88;14.15;;;7.80;99.90;;;;;;5024476;28;20197;-52
2021/11/22 04:36:17;;;;;;;24.13;13.85;;;7.70;99.90;;;;;;5026305;28;20208;-50
2021/11/22 04:38:45;;;;;;;17.13;12.07;;;7.80;99.90;;;;;;5036480;28;20204;-52
2021/11/22 04:41:12;;;;;;;26.50;13.85;;;7.90;99.90;;;;;;5025556;28;20228;-50
2021/11/22 04:43:40;;;;;;;21.73;15.63;;;7.90;99.90;;;;;;5033641;28;20256;-50
2021/11/22 04:46:07;;;;;;;21.92;12.95;;;7.90;99.90;;;;;;5024261;28;20246;-49
2021/11/22 04:48:35;;;;;;;25.80;14.82;;;7.80;99.90;;;;;;5030670;28;20236;-52
2021/11/22 04:51:03;;;;;;;18.48;13.43;;;7.70;99.90;;;;;;5031723;28;20220;-51
2021/11/22 04:53:30;;;;;;;25.55;14.77;;;7.60;99.90;;;;;;5026058;28;20196;-53
2021/11/22 04:55:57;;;;;;;21.65;15.48;;;7.60;99.90;;;;;;5032920;28;20204;-54
2021/11/22 04:58:26;;;;;;;21.48;13.32;;;7.60;99.90;;;;;;5024106;28;20466;-52
2021/11/22 05:00:53;;;;;;;24.58;15.63;;;7.50;99.90;;;;;;5030141;28;20266;-51
2021/11/22 05:03:21;;;;;;;20.95;13.48;;;7.50;99.90;;;;;;5033074;28;20205;-52
2021/11/22 05:05:48;;;;;;;27.15;14.80;;;7.70;99.90;;;;;;5028965;28;20217;-49
2021/11/22 05:08:16;;;;;;;27.50;16.60;;;7.80;99.90;;;;;;5032818;28;20244;-50
2021/11/22 05:10:44;;;;;;;25.75;14.98;;;7.70;99.90;;;;;;5030604;28;20302;-50
2021/11/22 05:13:15;;;;;;;22.73;15.30;;;7.80;99.90;;;;;;5030004;28;20255;-54
2021/11/22 05:15:42;;;;;;;23.10;15.07;;;7.80;99.90;;;;;;5031349;28;20193;-48
2021/11/22 05:18:12;;;;;;;24.70;15.25;;;7.90;99.90;;;;;;5029942;28;20243;-49
2021/11/22 05:20:42;;;;;;;23.05;15.02;;;8.00;99.90;;;;;;5031527;28;20202;-51
2021/11/22 05:23:11;;;;;;;19.95;14.23;;;8.00;99.90;;;;;;5037287;28;20281;-45
2021/11/22 05:25:39;;;;;;;27.17;14.48;;;7.90;99.90;;;;;;5042492;28;20219;-54
2021/11/22 05:28:07;;;;;;;25.27;15.82;;;8.00;99.90;;;;;;5029589;28;20238;-54
2021/11/22 05:30:35;;;;;;;25.55;14.63;;;8.00;99.90;;;;;;5023675;28;20197;-49
2021/11/22 05:33:04;;;;;;;26.25;14.25;;;7.80;99.90;;;;;;5033678;28;20259;-51
2021/11/22 05:35:33;;;;;;;26.35;15.88;;;7.80;99.90;;;;;;5034876;28;20200;-53
2021/11/22 05:38:00;;;;;;;22.92;14.35;;;7.60;99.90;;;;;;5032841;28;20250;-52
2021/11/22 05:40:28;;;;;;;27.23;14.13;;;7.70;99.90;;;;;;5031793;28;20193;-52
2021/11/22 05:42:57;;;;;;;20.58;14.10;;;7.60;99.90;;;;;;5035394;28;20415;-52
2021/11/22 05:45:25;;;;;;;29.30;15.25;;;7.70;99.90;;;;;;5030643;28;20192;-55
2021/11/22 05:47:52;;;;;;;24.20;15.35;;;7.70;99.90;;;;;;5027923;28;20203;-49
2021/11/22 05:50:22;;;;;;;28.40;15.80;;;7.60;99.90;;;;;;5026252;28;20499;-54
2021/11/22 05:52:52;;;;;;;25.13;14.45;;;7.60;99.90;;;;;;5023525;28;20267;-52
2021/11/22 05:55:34;;;;;;;34.90;15.63;;;7.60;99.90;;;;;;5031976;28;20220;-51
2021/11/22 05:58:08;;;;;;;32.63;16.40;;;7.80;99.90;;;;;;5027705;28;20509;-57
2021/11/22 06:00:36;;;;;;;27.85;16.67;;;7.80;99.90;;;;;;5025930;28;20219;-53
2021/11/22 06:03:03;;;;;;;27.13;15.00;;;7.70;99.90;;;;;;5031696;28;20207;-48
2021/11/22 06:05:31;;;;;;;25.83;14.52;;;7.60;99.90;;;;;;5026480;28;20204;-48
2021/11/22 06:07:58;;;;;;;23.83;15.38;;;7.50;99.90;;;;;;5031206;28;20221;-48
2021/11/22 06:10:28;;;;;;;33.28;16.50;;;7.50;99.90;;;;;;5030902;28;20244;-54
2021/11/22 06:12:55;;;;;;;34.90;16.70;;;7.70;99.90;;;;;;5026673;28;20443;-50
2021/11/22 06:15:23;;;;;;;31.23;15.90;;;7.70;99.90;;;;;;5030946;28;20201;-51
2021/11/22 06:19:54;;;;;;;33.65;16.40;;;7.70;99.90;;;;;;5117849;27;20329;-82
2021/11/22 06:22:21;;;;;;;35.00;17.87;;;7.70;99.90;;;;;;5012553;28;1514782;-82
2021/11/22 06:24:48;;;;;;;34.03;17.23;;;7.70;99.90;;;;;;5047762;28;20208;-84
2021/11/22 06:27:16;;;;;;;27.35;16.05;;;7.60;99.90;;;;;;5048795;28;20208;-84
2021/11/22 06:29:44;;;;;;;25.08;15.98;;;7.50;99.90;;;;;;5053672;28;20204;-84
2021/11/22 06:32:11;;;;;;;32.47;16.92;;;7.70;99.90;;;;;;5057411;28;20207;-85
2021/11/22 06:34:40;;;;;;;28.85;14.55;;;7.50;99.90;;;;;;5050433;28;20499;-82
2021/11/22 06:37:08;;;;;;;35.38;15.95;;;7.40;99.90;;;;;;5055302;28;20425;-81
2021/11/22 06:39:38;;;;;;;32.28;17.02;;;7.50;99.90;;;;;;5043279;28;20228;-83
2021/11/22 06:42:08;;;;;;;27.05;14.75;;;7.40;99.90;;;;;;5051465;28;20490;-81
2021/11/22 06:44:36;;;;;;;28.13;15.55;;;7.30;99.90;;;;;;5044657;28;20207;-82
2021/11/22 06:47:04;;;;;;;26.67;16.25;;;7.20;99.90;;;;;;5043783;28;20192;-80
2021/11/22 06:49:32;;;;;;;21.48;13.95;;;7.10;99.90;;;;;;5045113;28;20201;-81
2021/11/22 06:52:00;;;;;;;25.10;13.90;;;7.20;99.90;;;;;;5048355;28;20210;-80
2021/11/22 06:54:27;;;;;;;26.90;15.48;;;7.20;99.90;;;;;;5044998;28;20200;-83
2021/11/22 06:56:55;;;;;;;23.90;15.25;;;7.30;99.90;;;;;;5045898;28;20245;-85
2021/11/22 06:59:22;;;;;;;27.38;14.88;;;7.30;99.90;;;;;;5051484;28;20571;-81
2021/11/22 07:01:50;;;;;;;40.53;17.58;;;7.40;99.90;;;;;;5047221;28;20246;-82
2021/11/22 07:04:17;;;;;;;20.00;14.43;;;7.40;99.90;;;;;;5053617;28;20204;-81
2021/11/22 07:06:45;;;;;;;22.42;12.25;;;7.60;99.90;;;;;;5058696;28;20509;-81
2021/11/22 07:09:13;;;;;;;18.15;13.43;;;7.40;99.90;;;;;;5054522;28;20206;-80
2021/11/22 07:11:40;;;;;;;20.55;11.45;;;7.30;99.90;;;;;;5059620;28;20245;-81
2021/11/22 07:14:08;;;;;;;21.15;11.90;;;7.20;99.90;;;;;;5058137;28;20211;-83
2021/11/22 07:16:38;;;;;;;19.63;13.20;;;7.20;99.90;;;;;;5055639;28;20205;-84
2021/11/22 07:19:05;;;;;;;23.00;14.10;;;7.40;99.90;;;;;;5051109;28;20234;-84
2021/11/22 07:21:33;;;;;;;21.73;13.82;;;7.50;99.90;;;;;;5048754;28;20439;-83
2021/11/22 07:24:00;;;;;;;21.17;12.13;;;7.60;99.90;;;;;;5058561;28;20200;-83
2021/11/22 07:26:28;;;;;;;24.95;14.23;;;7.60;99.90;;;;;;5057107;28;20517;-83
2021/11/22 07:28:55;;;;;;;23.77;11.40;;;7.70;99.90;;;;;;5042824;28;20203;-83
2021/11/22 07:31:22;;;;;;;34.45;15.73;;;7.70;99.90;;;;;;5041700;28;20199;-86
2021/11/22 07:33:51;;;;;;;28.83;14.43;;;7.70;99.90;;;;;;5037514;28;20402;-84
2021/11/22 07:36:18;;;;;;;24.83;14.23;;;7.70;99.90;;;;;;5042795;28;20381;-82
2021/11/22 07:38:45;;;;;;;24.88;12.98;;;7.50;99.90;;;;;;5036259;28;20216;-84
2021/11/22 07:41:13;;;;;;;22.25;13.48;;;7.40;99.90;;;;;;5035397;28;20202;-83
2021/11/22 07:43:40;;;;;;;25.90;13.55;;;7.50;99.90;;;;;;5043946;28;20387;-82
2021/11/22 07:46:08;;;;;;;29.15;17.25;;;7.50;99.90;;;;;;5036817;28;20482;-84
2021/11/22 07:48:36;;;;;;;22.83;14.20;;;7.60;99.90;;;;;;5029144;28;20526;-82
2021/11/22 07:51:04;;;;;;;21.80;14.20;;;7.50;99.90;;;;;;5043385;28;20208;-84
2021/11/22 07:53:35;;;;;;;23.30;15.27;;;7.50;99.90;;;;;;5039318;28;20199;-85
2021/11/22 07:56:03;;;;;;;34.55;17.55;;;7.40;99.90;;;;;;5051900;28;20208;-85
2021/11/22 07:58:30;;;;;;;22.83;15.60;;;7.40;99.90;;;;;;5042616;28;20224;-83
2021/11/22 08:00:58;;;;;;;25.52;14.80;;;7.30;99.90;;;;;;5037244;28;20533;-85
2021/11/22 08:03:26;;;;;;;27.27;15.23;;;7.10;99.90;;;;;;5035995;28;20239;-84
2021/11/22 08:05:55;;;;;;;26.70;15.40;;;7.00;99.90;;;;;;5036522;28;20263;-84
2021/11/22 08:08:26;;;;;;;26.55;16.30;;;6.90;99.90;;;;;;5038218;28;20212;-83
2021/11/22 08:13:34;;;;;;;21.52;14.93;;;7.10;99.90;;;;;;5045834;28;20205;-84
2021/11/22 08:16:05;;;;;;;19.92;12.20;;;7.00;99.90;;;;;;5031843;28;20259;-85
2021/11/22 08:18:33;;;;;;;15.98;10.57;;;7.10;99.90;;;;;;5046461;28;20365;-84
2021/11/22 08:21:02;;;;;;;16.98;10.40;;;7.10;99.90;;;;;;5040596;28;20278;-82
2021/11/22 08:23:31;;;;;;;15.02;9.10;;;6.90;99.90;;;;;;5042492;28;20196;-83
2021/11/22 08:25:59;;;;;;;17.38;10.05;;;6.80;99.90;;;;;;5037688;28;20202;-85
2021/11/22 08:28:26;;;;;;;18.23;10.13;;;6.80;99.90;;;;;;5037242;28;20490;-83
2021/11/22 08:30:54;;;;;;;15.30;10.30;;;6.80;99.90;;;;;;5029802;28;20270;-83
2021/11/22 08:33:22;;;;;;;16.25;9.05;;;6.80;99.90;;;;;;5039759;28;20211;-85
2021/11/22 08:35:50;;;;;;;14.52;8.98;;;6.70;99.90;;;;;;5032018;28;20255;-84
2021/11/22 08:38:18;;;;;;;14.38;9.75;;;6.80;99.90;;;;;;5046268;28;20200;-84
2021/11/22 08:40:47;;;;;;;14.27;9.10;;;6.80;99.90;;;;;;5039852;28;20239;-83
2021/11/22 08:43:17;;;;;;;9.95;6.90;;;7.10;99.90;;;;;;5038253;28;20200;-83
2021/11/22 08:45:48;;;;;;;9.80;6.97;;;7.20;99.90;;;;;;5030708;28;20220;-83
2021/11/22 08:48:19;;;;;;;10.23;6.32;;;7.30;99.90;;;;;;5029632;28;20219;-83
2021/11/22 08:50:48;;;;;;;9.20;6.38;;;7.20;99.90;;;;;;5034084;28;20212;-84
2021/11/22 08:53:15;;;;;;;7.88;5.20;;;7.00;99.90;;;;;;5041956;28;20203;-85
2021/11/22 08:55:46;;;;;;;6.65;4.65;;;6.70;99.90;;;;;;5038364;28;20207;-84
2021/11/22 08:58:13;;;;;;;9.70;6.07;;;6.70;99.90;;;;;;5039937;28;20196;-84
2021/11/22 09:00:42;;;;;;;10.38;5.53;;;6.70;99.90;;;;;;5039477;28;20284;-81
2021/11/22 09:03:10;;;;;;;13.60;8.07;;;6.80;99.90;;;;;;5039832;28;20223;-82
2021/11/22 09:05:38;;;;;;;8.00;5.90;;;6.80;99.90;;;;;;5047753;28;20270;-83
2021/11/22 09:08:08;;;;;;;15.23;7.28;;;7.00;99.90;;;;;;5042651;28;20207;-85
2021/11/22 09:10:36;;;;;;;14.32;7.72;;;7.00;99.90;;;;;;5034448;28;20363;-84
2021/11/22 09:13:04;;;;;;;13.70;9.25;;;6.90;99.90;;;;;;5045313;28;20540;-82
2021/11/22 09:15:32;;;;;;;17.55;9.73;;;7.00;99.90;;;;;;5036139;28;20462;-84
2021/11/22 09:17:59;;;;;;;13.20;8.35;;;7.10;99.90;;;;;;5034766;28;20207;-84
2021/11/22 09:20:29;;;;;;;12.20;8.38;;;7.10;99.90;;;;;;5042936;28;20219;-83
2021/11/22 09:22:57;;;;;;;17.05;11.02;;;7.00;99.90;;;;;;5042138;28;20200;-85
2021/11/22 09:25:25;;;;;;;16.40;8.98;;;7.00;99.90;;;;;;5043746;28;20257;-85
2021/11/22 09:27:53;;;;;;;11.18;8.43;;;7.00;99.90;;;;;;5035231;28;20200;-84
2021/11/22 09:30:22;;;;;;;22.25;11.05;;;7.00;99.90;;;;;;5041662;28;20282;-84
2021/11/22 09:32:49;;;;;;;15.60;10.15;;;7.10;99.90;;;;;;5031998;28;20204;-84
2021/11/22 09:35:17;;;;;;;14.35;9.77;;;7.10;99.90;;;;;;5040706;28;20517;-85
2021/11/22 09:37:45;;;;;;;13.98;10.73;;;7.00;99.90;;;;;;5036246;28;20204;-85
2021/11/22 09:40:14;;;;;;;15.02;9.90;;;7.10;99.90;;;;;;5042702;28;20232;-85
2021/11/22 09:42:41;;;;;;;20.10;11.07;;;7.30;99.90;;;;;;5046283;28;20250;-82
2021/11/22 09:45:11;;;;;;;22.15;10.02;;;7.40;99.90;;;;;;5027244;28;20201;-85
2021/11/22 09:47:39;;;;;;;17.08;10.32;;;7.20;99.90;;;;;;5038536;28;20204;-85
2021/11/22 09:50:08;;;;;;;22.52;14.25;;;7.20;99.90;;;;;;5034878;28;20403;-83
2021/11/22 09:52:36;;;;;;;20.30;15.38;;;7.10;99.90;;;;;;5038329;28;20216;-85
2021/11/22 09:55:04;;;;;;;22.40;14.65;;;7.10;99.90;;;;;;5041651;28;20226;-87
2021/11/22 09:57:32;;;;;;;19.08;12.38;;;7.20;99.90;;;;;;5042401;28;20193;-84
2021/11/22 10:00:06;;;;;;;20.55;13.65;;;7.30;99.90;;;;;;5040211;28;20283;-83
2021/11/22 10:02:52;;;;;;;16.52;10.43;;;7.50;99.90;;;;;;5031536;28;20215;-84
2021/11/22 10:05:22;;;;;;;21.17;10.55;;;7.80;99.90;;;;;;5044616;28;20227;-85
2021/11/22 10:08:08;;;;;;;14.75;9.27;;;8.00;99.90;;;;;;5035757;28;20292;-83
2021/11/22 10:10:48;;;;;;;18.00;9.90;;;8.10;99.90;;;;;;5042676;28;20389;-84
2021/11/22 10:13:36;;;;;;;13.00;9.00;;;8.00;99.90;;;;;;5033712;28;20246;-83
2021/11/22 10:16:15;;;;;;;12.30;8.45;;;7.80;99.90;;;;;;5034845;28;20208;-83
2021/11/22 10:18:46;;;;;;;9.55;8.00;;;7.40;99.90;;;;;;5039881;28;20211;-83
2021/11/22 10:21:22;;;;;;;12.63;7.90;;;7.10;99.90;;;;;;5029116;28;20208;-83
2021/11/22 10:23:56;;;;;;;10.18;7.78;;;6.80;99.90;;;;;;5039484;28;20200;-84
2021/11/22 10:26:24;;;;;;;10.90;8.20;;;6.90;99.90;;;;;;5038032;28;20202;-84
2021/11/22 10:28:54;;;;;;;17.25;8.18;;;6.80;99.90;;;;;;5026164;28;20559;-85
2021/11/22 10:31:25;;;;;;;14.40;7.65;;;6.80;99.90;;;;;;5037811;28;20189;-84
2021/11/22 10:33:58;;;;;;;9.20;7.10;;;6.70;99.90;;;;;;5033810;28;20417;-83
2021/11/22 10:36:28;;;;;;;12.18;7.80;;;6.70;99.90;;;;;;5039164;28;20497;-81
2021/11/22 10:38:59;;;;;;;11.95;6.95;;;6.80;99.90;;;;;;5027197;28;20224;-83
2021/11/22 10:41:37;;;;;;;11.23;7.93;;;6.80;99.90;;;;;;5047058;28;20207;-84
2021/11/22 10:44:08;;;;;;;8.95;6.70;;;6.80;99.90;;;;;;5030195;28;20282;-83
2021/11/22 10:46:45;;;;;;;14.43;7.90;;;7.00;99.90;;;;;;5040621;28;20192;-84
2021/11/22 10:49:17;;;;;;;11.40;9.15;;;7.10;99.90;;;;;;5034151;28;20220;-83
2021/11/22 10:51:50;;;;;;;14.13;8.90;;;7.20;99.90;;;;;;5035302;28;20275;-84
2021/11/22 10:54:19;;;;;;;15.60;9.07;;;7.10;99.90;;;;;;5027447;28;20209;-83
2021/11/22 10:56:50;;;;;;;9.23;7.15;;;7.20;99.90;;;;;;5035675;28;20211;-82
2021/11/22 10:59:20;;;;;;;10.20;7.30;;;7.20;99.90;;;;;;5032973;28;20450;-83
2021/11/22 11:01:53;;;;;;;11.02;6.85;;;7.20;99.90;;;;;;5037190;28;20368;-84
2021/11/22 11:04:31;;;;;;;9.13;6.40;;;7.30;99.90;;;;;;5031316;28;20197;-81
2021/11/22 11:07:02;;;;;;;10.45;7.78;;;7.30;99.90;;;;;;5038372;28;20214;-82
2021/11/22 11:09:32;;;;;;;8.27;6.10;;;7.30;99.90;;;;;;5037609;28;20204;-80
2021/11/22 11:12:08;;;;;;;8.77;5.68;;;7.30;99.90;;;;;;5039109;28;20235;-82
2021/11/22 11:14:37;;;;;;;14.63;7.47;;;7.30;99.90;;;;;;5035962;28;20226;-85
2021/11/22 11:17:30;;;;;;;13.23;8.52;;;7.30;99.90;;;;;;5043825;28;20204;-84
2021/11/22 11:20:00;;;;;;;14.40;10.75;;;7.10;99.90;;;;;;5033454;28;20228;-82
2021/11/22 11:22:29;;;;;;;15.80;9.70;;;7.00;99.90;;;;;;5049006;28;20430;-82
2021/11/22 11:24:57;;;;;;;12.90;10.23;;;7.00;99.90;;;;;;5039286;28;20201;-82
2021/11/22 11:27:39;;;;;;;17.08;11.70;;;6.90;99.90;;;;;;5036002;28;20502;-84
2021/11/22 11:30:19;;;;;;;22.80;12.65;;;6.80;99.90;;;;;;5035531;28;20211;-83
2021/11/22 11:32:50;;;;;;;19.63;12.65;;;6.80;99.90;;;;;;5049226;28;20282;-84
2021/11/22 11:35:19;;;;;;;22.15;11.45;;;6.80;99.90;;;;;;5035375;28;20224;-83
2021/11/22 11:38:09;;;;;;;17.00;12.15;;;6.90;99.90;;;;;;5033644;28;20200;-84
2021/11/22 11:41:22;;;;;;;20.05;12.70;;;7.00;99.90;;;;;;5035996;28;20568;-84
2021/11/22 11:44:21;;;;;;;19.70;12.25;;;6.90;99.90;;;;;;5033524;28;20200;-84
2021/11/22 11:47:32;;;;;;;30.60;14.60;;;7.00;99.90;;;;;;5032762;28;20192;-82
2021/11/22 11:50:19;;;;;;;19.88;13.02;;;7.00;99.90;;;;;;5053499;28;20209;-85
2021/11/22 11:52:55;;;;;;;32.25;15.70;;;7.10;99.90;;;;;;5028907;28;20280;-84
2021/11/22 11:55:23;;;;;;;26.00;14.80;;;7.10;99.90;;;;;;5042758;28;20203;-83
2021/11/22 11:58:25;;;;;;;22.33;15.10;;;7.00;99.90;;;;;;5044562;28;20280;-83
2021/11/22 12:00:57;;;;;;;28.27;14.93;;;7.00;99.90;;;;;;5043779;28;20456;-82
2021/11/22 12:03:26;;;;;;;24.42;16.17;;;7.00;99.90;;;;;;5036385;28;20323;-85
2021/11/22 12:05:55;;;;;;;23.67;15.80;;;7.10;99.90;;;;;;5036993;28;20220;-85
2021/11/22 12:08:29;;;;;;;28.10;12.75;;;7.10;99.90;;;;;;5045109;28;20195;-83
2021/11/22 12:11:05;;;;;;;17.23;12.90;;;7.00;99.90;;;;;;5035580;28;20529;-84
2021/11/22 12:13:46;;;;;;;23.27;13.82;;;6.90;99.90;;;;;;5044789;28;20235;-84
2021/11/22 12:16:44;;;;;;;22.60;12.85;;;7.10;99.90;;;;;;5052373;28;20223;-86
2021/11/22 12:19:51;;;;;;;22.90;12.98;;;7.10;99.90;;;;;;5027486;28;20276;-83
2021/11/22 12:22:19;;;;;;;17.42;12.07;;;6.90;99.90;;;;;;4991876;28;20407;-83
2021/11/22 12:24:49;;;;;;;23.25;14.68;;;6.80;99.90;;;;;;4992390;28;20202;-84
2021/11/22 12:27:31;;;;;;;23.58;15.52;;;6.70;99.90;;;;;;5029850;28;20246;-84
2021/11/22 12:30:00;;;;;;;25.67;14.95;;;6.80;99.90;;;;;;5038919;28;20211;-81
2021/11/22 12:32:34;;;;;;;23.58;14.70;;;6.70;99.90;;;;;;5035361;28;20227;-84
2021/11/22 12:35:15;;;;;;;26.88;15.77;;;6.70;99.90;;;;;;5041583;28;20367;-83
2021/11/22 12:37:43;;;;;;;24.08;14.57;;;6.70;99.90;;;;;;5030324;28;20209;-83
2021/11/22 12:40:12;;;;;;;21.55;15.07;;;6.70;99.90;;;;;;5036831;28;20235;-81
2021/11/22 12:42:55;;;;;;;31.02;18.55;;;6.60;99.90;;;;;;5030901;28;20203;-84
2021/11/22 12:45:22;;;;;;;30.45;18.55;;;6.60;99.90;;;;;;5039775;28;20577;-83
2021/11/22 12:47:51;;;;;;;32.65;18.42;;;6.50;99.90;;;;;;5042325;28;20406;-85
2021/11/22 12:50:22;;;;;;;30.55;17.73;;;6.50;99.90;;;;;;5043276;28;20204;-83
2021/11/22 12:53:11;;;;;;;31.55;19.67;;;6.40;99.90;;;;;;5042296;28;20226;-83
2021/11/22 12:55:41;;;;;;;35.85;17.95;;;6.40;99.90;;;;;;5040110;28;20360;-83
2021/11/22 12:58:20;;;;;;;34.03;19.83;;;6.40;99.90;;;;;;5046562;28;20208;-82